Time;durP1;ratioP1;P1;durP2;ratioP2;P2;SDS_P1;SDS_P2;PMS_P1;PMS_P2;Temp;Humidity;BMP_temperature;BMP_pressure;BME280_temperature;BME280_humidity;BME280_pressure;Samples;Min_cycle;Max_cycle;Signal;HPM_P1;HPM_P2
2022/11/05 00:16:45;;;;;;;;;;;;;;;9.36;100.00;99155.75;10332452;23;19935;-83
2022/11/05 00:20:46;;;;;;;;;;;;;;;9.35;100.00;99152.28;10309187;23;19924;-82
2022/11/05 00:29:08;;;;;;;;;;;;;;;9.37;100.00;99147.97;10311982;23;19923;-82
2022/11/05 00:33:09;;;;;;;;;;;;;;;9.38;100.00;99161.78;10269544;22;20010;-81
2022/11/05 00:37:11;;;;;;;;;;;;;;;9.37;100.00;99170.41;10358098;22;19930;-80
2022/11/05 00:41:12;;;;;;;;;;;;;;;9.35;100.00;99170.44;10358416;22;20328;-81
2022/11/05 00:45:15;;;;;;;;;;;;;;;9.35;100.00;99170.44;10352050;22;19927;-81
2022/11/05 00:49:28;;;;;;;;;;;;;;;9.34;100.00;99173.88;10386346;22;19950;-81
2022/11/05 00:53:29;;;;;;;;;;;;;;;9.29;100.00;99183.38;10385490;22;19927;-82
2022/11/05 00:57:31;;;;;;;;;;;;;;;9.23;100.00;99182.53;10358966;22;19946;-84
2022/11/05 01:01:32;;;;;;;;;;;;;;;9.20;100.00;99185.16;10351216;22;19923;-81
2022/11/05 01:05:37;;;;;;;;;;;;;;;9.09;100.00;99190.34;10334341;22;19927;-81
2022/11/05 01:09:38;;;;;;;;;;;;;;;9.01;100.00;99192.94;10334506;22;20019;-81
2022/11/05 01:13:39;;;;;;;;;;;;;;;8.95;100.00;99200.72;10359380;22;20002;-81
2022/11/05 01:17:41;;;;;;;;;;;;;;;8.92;100.00;99198.13;10329247;22;19931;-81
2022/11/05 01:21:42;;;;;;;;;;;;;;;8.90;100.00;99193.81;10389276;22;19929;-81
2022/11/05 01:25:43;;;;;;;;;;;;;;;8.84;100.00;99193.84;10337952;22;20049;-81
2022/11/05 01:29:45;;;;;;;;;;;;;;;8.76;100.00;99202.44;10364141;22;19927;-81
2022/11/05 01:33:46;;;;;;;;;;;;;;;8.68;100.00;99221.44;10356133;22;20373;-82
2022/11/05 01:37:47;;;;;;;;;;;;;;;8.54;99.13;99220.56;10363042;22;20002;-82
2022/11/05 01:41:49;;;;;;;;;;;;;;;8.41;100.00;99230.88;10360497;22;19959;-80
2022/11/05 01:45:51;;;;;;;;;;;;;;;8.32;99.75;99236.03;10380842;22;20009;-80
2022/11/05 01:49:54;;;;;;;;;;;;;;;8.24;99.79;99242.03;10359916;22;19919;-80
2022/11/05 01:54:04;;;;;;;;;;;;;;;8.14;99.74;99239.44;10358157;22;19974;-80
2022/11/05 01:58:08;;;;;;;;;;;;;;;8.08;100.00;99238.56;10360531;22;19968;-81
2022/11/05 02:02:09;;;;;;;;;;;;;;;7.96;99.29;99241.97;10383161;22;19927;-81
2022/11/05 02:06:12;;;;;;;;;;;;;;;7.90;99.65;99257.47;10360362;22;19962;-81
2022/11/05 02:10:16;;;;;;;;;;;;;;;7.84;100.00;99258.28;10357469;22;19923;-80
2022/11/05 02:14:18;;;;;;;;;;;;;;;7.77;100.00;99264.28;10359243;22;20475;-80
2022/11/05 02:18:23;;;;;;;;;;;;;;;7.73;100.00;99269.44;10353021;22;19926;-80
2022/11/05 02:22:36;;;;;;;;;;;;;;;7.64;100.00;99270.25;10359723;22;19920;-81
2022/11/05 02:26:53;;;;;;;;;;;;;;;7.61;100.00;99279.69;10359891;22;20344;-81
2022/11/05 02:30:59;;;;;;;;;;;;;;;7.62;100.00;99281.44;10354149;22;19956;-80
2022/11/05 02:35:20;;;;;;;;;;;;;;;7.67;100.00;99288.34;10360152;22;19923;-80
2022/11/05 02:39:36;;;;;;;;;;;;;;;7.68;100.00;99299.53;10358580;22;19919;-80
2022/11/05 02:44:10;;;;;;;;;;;;;;;7.71;100.00;99296.97;10358216;22;19927;-80
2022/11/05 02:48:11;;;;;;;;;;;;;;;7.73;100.00;99309.06;10328737;22;20002;-80
2022/11/05 02:52:15;;;;;;;;;;;;;;;7.77;100.00;99308.22;10332188;22;19958;-80
2022/11/05 02:56:19;;;;;;;;;;;;;;;7.79;100.00;99311.69;10356935;22;20009;-80
2022/11/05 03:00:39;;;;;;;;;;;;;;;7.80;100.00;99313.41;10351425;22;20373;-80
2022/11/05 03:04:41;;;;;;;;;;;;;;;7.78;100.00;99315.13;10337672;22;19920;-80
2022/11/05 03:08:49;;;;;;;;;;;;;;;7.74;100.00;99322.84;10389626;22;20265;-80
2022/11/05 03:13:03;;;;;;;;;;;;;;;7.68;100.00;99334.00;10387596;22;19927;-80
2022/11/05 03:17:24;;;;;;;;;;;;;;;7.69;100.00;99342.63;10356881;22;19923;-80
2022/11/05 03:21:41;;;;;;;;;;;;;;;7.75;100.00;99337.50;10362342;22;19919;-80
2022/11/05 03:25:47;;;;;;;;;;;;;;;7.77;100.00;99333.19;10337269;22;19954;-80
2022/11/05 03:29:50;;;;;;;;;;;;;;;7.79;100.00;99332.34;10337867;22;19927;-80
2022/11/05 03:33:52;;;;;;;;;;;;;;;7.81;100.00;99333.22;10382065;22;19923;-80
2022/11/05 03:37:57;;;;;;;;;;;;;;;7.78;100.00;99333.22;10363384;22;19919;-80
2022/11/05 03:41:59;;;;;;;;;;;;;;;7.72;100.00;99333.19;10338699;22;19919;-80
2022/11/05 03:46:03;;;;;;;;;;;;;;;7.63;100.00;99334.84;10384893;22;19958;-80
2022/11/05 03:50:14;;;;;;;;;;;;;;;7.46;100.00;99348.50;10389161;22;20329;-80
2022/11/05 03:54:15;;;;;;;;;;;;;;;7.34;100.00;99357.84;10339050;22;20014;-80
2022/11/05 03:58:18;;;;;;;;;;;;;;;7.21;100.00;99364.66;10337921;22;19988;-80
2022/11/05 04:02:22;;;;;;;;;;;;;;;7.21;100.00;99370.69;10357032;22;19923;-80
2022/11/05 04:13:22;;;;;;;;;;;;;;;7.01;100.00;99374.81;10383746;22;19976;-80
2022/11/05 04:15:05;;;;;;;;;;;;;;;6.93;100.00;99369.56;10354419;22;20371;-80
2022/11/05 04:19:07;;;;;;;;;;;;;;;6.92;100.00;99378.16;10334200;22;20260;-80
2022/11/05 04:27:28;;;;;;;;;;;;;;;6.76;100.00;99390.88;10388555;22;20025;-80
2022/11/05 04:31:29;;;;;;;;;;;;;;;6.64;100.00;99394.19;10347639;22;20365;-78
2022/11/05 04:35:33;;;;;;;;;;;;;;;6.50;100.00;99401.78;10380810;22;19928;-78
2022/11/05 04:39:35;;;;;;;;;;;;;;;6.41;100.00;99400.78;10356495;22;20210;-78
2022/11/05 04:43:36;;;;;;;;;;;;;;;6.32;100.00;99392.09;10354640;22;19992;-78
2022/11/05 04:47:38;;;;;;;;;;;;;;;6.29;100.00;99406.69;10349143;22;20042;-78
2022/11/05 04:51:39;;;;;;;;;;;;;;;6.19;99.98;99410.84;10383142;22;20247;-78
2022/11/05 04:55:40;;;;;;;;;;;;;;;6.13;99.87;99412.47;10380945;22;19931;-77
2022/11/05 04:59:42;;;;;;;;;;;;;;;6.07;99.95;99413.25;10327469;22;20192;-78
2022/11/05 05:03:45;;;;;;;;;;;;;;;5.99;99.79;99420.88;10349464;22;19923;-78
2022/11/05 05:07:46;;;;;;;;;;;;;;;5.91;99.54;99421.59;10357824;22;19980;-78
2022/11/05 05:11:48;;;;;;;;;;;;;;;5.84;100.00;99422.31;10356227;22;19966;-77
2022/11/05 05:15:49;;;;;;;;;;;;;;;5.83;100.00;99418.88;10348653;22;19948;-78
2022/11/05 05:24:12;;;;;;;;;;;;;;;5.80;100.00;99428.28;10355353;22;20571;-77
2022/11/05 05:28:14;;;;;;;;;;;;;;;5.76;100.00;99433.41;10355572;22;19966;-77
2022/11/05 05:32:15;;;;;;;;;;;;;;;5.75;100.00;99434.25;10349243;22;19966;-78
2022/11/05 05:36:16;;;;;;;;;;;;;;;5.71;100.00;99436.72;10329406;23;20257;-77
2022/11/05 05:40:17;;;;;;;;;;;;;;;5.68;100.00;99444.41;10328550;23;19924;-77
2022/11/05 05:44:19;;;;;;;;;;;;;;;5.65;100.00;99450.38;10329306;23;20002;-78
2022/11/05 05:48:20;;;;;;;;;;;;;;;5.62;100.00;99454.63;10297801;23;19923;-77
2022/11/05 05:52:21;;;;;;;;;;;;;;;5.58;100.00;99452.84;10303538;23;20303;-77
2022/11/05 05:56:23;;;;;;;;;;;;;;;5.51;100.00;99461.28;10328987;23;19988;-77
2022/11/05 06:00:24;;;;;;;;;;;;;;;5.42;100.00;99460.31;10321834;22;20307;-78
2022/11/05 06:04:25;;;;;;;;;;;;;;;5.35;100.00;99468.75;10330140;23;19978;-78
2022/11/05 06:08:27;;;;;;;;;;;;;;;5.33;100.00;99462.72;10330099;22;20003;-78
2022/11/05 06:12:28;;;;;;;;;;;;;;;5.24;100.00;99478.00;10331806;23;19923;-78
2022/11/05 06:16:37;;;;;;;;;;;;;;;5.15;100.00;99480.38;10323530;22;20390;-77
2022/11/05 06:20:39;;;;;;;;;;;;;;;5.13;100.00;99484.66;10330835;23;19919;-78
2022/11/05 06:24:40;;;;;;;;;;;;;;;5.01;99.46;99482.69;10330360;22;20002;-78
2022/11/05 06:28:42;;;;;;;;;;;;;;;4.99;99.85;99492.09;10329739;23;19935;-80
2022/11/05 06:32:43;;;;;;;;;;;;;;;5.00;100.00;99483.53;10324890;23;19969;-79
2022/11/05 06:36:45;;;;;;;;;;;;;;;4.92;100.00;99479.09;10331212;23;19927;-80
2022/11/05 06:40:46;;;;;;;;;;;;;;;4.95;100.00;99495.44;10306306;23;20307;-80
2022/11/05 06:44:48;;;;;;;;;;;;;;;4.90;100.00;99506.50;10331547;23;19973;-80
2022/11/05 06:48:49;;;;;;;;;;;;;;;4.89;100.00;99504.78;10324363;23;19920;-80
2022/11/05 06:52:58;;;;;;;;;;;;;;;4.89;100.00;99520.19;10306131;23;20397;-80
2022/11/05 06:56:59;;;;;;;;;;;;;;;4.94;100.00;99526.31;10329891;23;19924;-80
2022/11/05 07:01:06;;;;;;;;;;;;;;;4.97;100.00;99529.78;10323488;22;19923;-79
2022/11/05 07:05:10;;;;;;;;;;;;;;;5.02;100.00;99530.75;10308898;23;20007;-80
2022/11/05 07:09:11;;;;;;;;;;;;;;;5.05;100.00;99538.56;10306508;23;20034;-80
2022/11/05 07:13:12;;;;;;;;;;;;;;;5.15;100.00;99543.03;10331477;23;19923;-80
2022/11/05 07:17:16;;;;;;;;;;;;;;;5.22;100.00;99556.91;10324784;22;19982;-80
2022/11/05 07:21:18;;;;;;;;;;;;;;;5.32;100.00;99565.66;10306452;23;19993;-80
2022/11/05 07:25:19;;;;;;;;;;;;;;;5.45;100.00;99572.78;10331975;23;19923;-80
2022/11/05 07:29:21;;;;;;;;;;;;;;;5.55;100.00;99566.94;10336018;23;19939;-80
2022/11/05 07:52:36;;;;;;;;;;;;;;;6.44;100.00;99610.59;10338323;22;20382;-81
2022/11/05 07:56:38;;;;;;;;;;;;;;;6.59;100.00;99616.00;10327598;23;19935;-81
2022/11/05 08:00:39;;;;;;;;;;;;;;;6.78;100.00;99618.84;10336117;23;19931;-80
2022/11/05 08:04:41;;;;;;;;;;;;;;;6.92;100.00;99620.78;10329243;23;19945;-81
2022/11/05 08:08:43;;;;;;;;;;;;;;;7.11;100.00;99628.78;10332466;23;19927;-81
2022/11/05 08:12:47;;;;;;;;;;;;;;;7.25;100.00;99628.13;10332862;23;20306;-81
2022/11/05 08:16:49;;;;;;;;;;;;;;;7.50;100.00;99623.22;10329655;23;20362;-79
2022/11/05 08:20:50;;;;;;;;;;;;;;;7.61;98.66;99626.81;10340330;23;19935;-81
2022/11/05 08:24:51;;;;;;;;;;;;;;;7.76;97.80;99637.31;10362127;23;19946;-82
2022/11/05 09:14:30;;;;;;;;;;;;;;;7.83;96.72;99670.13;10340152;22;19927;-81
2022/11/05 09:18:32;;;;;;;;;;;;;;;7.83;96.66;99674.44;10357602;22;19904;-86
2022/11/05 09:22:33;;;;;;;;;;;;;;;7.74;96.33;99676.94;10360148;22;19928;-86
2022/11/05 09:26:42;;;;;;;;;;;;;;;7.81;96.47;99678.72;10359758;22;19908;-84
2022/11/05 09:30:45;;;;;;;;;;;;;;;7.71;96.10;99689.78;10336147;22;19903;-87
2022/11/05 09:34:47;;;;;;;;;;;;;;;7.78;96.49;99689.03;10361122;22;19926;-88
2022/11/05 09:38:49;;;;;;;;;;;;;;;7.83;96.89;99689.94;10361704;22;19910;-89
2022/11/05 09:44:00;;;;;;;;;;;;;;;7.90;97.04;99699.53;10389928;22;19931;-88
2022/11/05 09:48:27;;;;;;;;;;;;;;;7.95;96.38;99697.84;10310534;22;19952;-85
2022/11/05 09:53:24;;;;;;;;;;;;;;;7.97;96.03;99701.31;10378475;22;19903;-85
2022/11/05 09:58:26;;;;;;;;;;;;;;;8.03;96.46;99709.13;10372556;22;19957;-86
2022/11/05 10:02:54;;;;;;;;;;;;;;;8.10;96.65;99721.28;10368642;22;19910;-86
2022/11/05 10:07:14;;;;;;;;;;;;;;;8.16;96.18;99726.53;10367469;22;19903;-88
2022/11/05 10:11:57;;;;;;;;;;;;;;;8.13;95.95;99735.97;10382585;22;19903;-86
2022/11/05 10:16:59;;;;;;;;;;;;;;;8.15;95.37;99737.72;10389587;22;19908;-86
2022/11/05 10:21:25;;;;;;;;;;;;;;;8.10;94.67;99728.19;10387115;22;19904;-85
2022/11/05 10:26:28;;;;;;;;;;;;;;;8.21;94.72;99736.03;10389317;22;19961;-88
2022/11/05 10:31:19;;;;;;;;;;;;;;;8.22;94.02;99743.81;10371325;22;19930;-83
2022/11/05 10:36:32;;;;;;;;;;;;;;;8.26;94.93;99739.53;10385508;22;19911;-87
2022/11/05 10:40:54;;;;;;;;;;;;;;;8.31;94.86;99738.75;10339680;22;19931;-85
2022/11/05 10:45:15;;;;;;;;;;;;;;;8.35;94.23;99743.13;10382008;22;19925;-86
2022/11/05 10:49:31;;;;;;;;;;;;;;;8.27;93.31;99749.94;10359011;22;19904;-84
2022/11/05 10:53:37;;;;;;;;;;;;;;;8.25;93.65;99749.00;10361445;22;19963;-83
2022/11/05 10:57:46;;;;;;;;;;;;;;;8.29;93.30;99744.75;10362405;22;19923;-84
2022/11/05 11:02:13;;;;;;;;;;;;;;;8.38;93.82;99756.09;10360204;22;19904;-83
2022/11/05 11:06:30;;;;;;;;;;;;;;;8.45;93.12;99749.28;10358448;23;19903;-82
2022/11/05 11:10:39;;;;;;;;;;;;;;;8.52;92.55;99752.78;10313262;23;19924;-82
2022/11/05 11:14:40;;;;;;;;;;;;;;;8.56;92.85;99742.47;10297228;22;19923;-81
2022/11/05 11:18:42;;;;;;;;;;;;;;;8.75;92.99;99749.53;10346053;22;19922;-83
2022/11/05 11:23:04;;;;;;;;;;;;;;;8.92;92.39;99756.59;10327576;23;19915;-84
2022/11/05 11:27:14;;;;;;;;;;;;;;;8.92;90.30;99751.41;10342087;23;19910;-85
2022/11/05 11:31:19;;;;;;;;;;;;;;;8.96;89.25;99751.44;10330619;23;20361;-83
2022/11/05 11:35:22;;;;;;;;;;;;;;;8.94;89.28;99754.88;10335000;23;19953;-83
2022/11/05 11:39:26;;;;;;;;;;;;;;;8.90;88.19;99753.97;10313355;23;20358;-83
2022/11/05 11:43:29;;;;;;;;;;;;;;;8.82;88.05;99755.66;10318953;23;19920;-83
2022/11/05 11:47:31;;;;;;;;;;;;;;;8.92;89.88;99747.09;10323383;23;19919;-82
2022/11/05 11:51:43;;;;;;;;;;;;;;;8.96;88.55;99751.44;10355415;22;19919;-83
2022/11/05 11:55:56;;;;;;;;;;;;;;;9.02;88.26;99759.28;10358686;22;19952;-84
2022/11/05 11:59:58;;;;;;;;;;;;;;;9.01;86.50;99751.50;10361106;22;19939;-83
2022/11/05 12:04:24;;;;;;;;;;;;;;;8.98;87.10;99751.47;10339011;22;19910;-87
2022/11/05 12:08:26;;;;;;;;;;;;;;;9.07;87.06;99747.22;10362013;22;19930;-88
2022/11/05 12:12:43;;;;;;;;;;;;;;;9.19;87.89;99746.44;10361767;22;19943;-89
2022/11/05 12:17:20;;;;;;;;;;;;;;;9.31;88.06;99743.91;10328137;23;19924;-88
2022/11/05 12:21:51;;;;;;;;;;;;;;;9.39;87.72;99737.06;10302192;22;19930;-87
2022/11/05 12:26:03;;;;;;;;;;;;;;;9.50;86.18;99729.34;10295218;22;19946;-90
2022/11/05 12:30:16;;;;;;;;;;;;;;;9.61;85.10;99734.59;10343451;23;19934;-90
2022/11/05 12:34:27;;;;;;;;;;;;;;;9.61;83.22;99727.66;10336258;23;19928;-90
2022/11/05 12:38:29;;;;;;;;;;;;;;;9.72;83.22;99730.31;10365257;23;19923;-89
2022/11/05 12:42:40;;;;;;;;;;;;;;;9.81;82.95;99732.06;10361809;23;20029;-87
2022/11/05 12:46:48;;;;;;;;;;;;;;;9.81;81.16;99722.56;10347838;22;19966;-90
2022/11/05 12:51:09;;;;;;;;;;;;;;;9.92;81.78;99726.09;10333859;23;19927;-86
2022/11/05 12:55:22;;;;;;;;;;;;;;;10.04;82.20;99711.41;10365309;22;19920;-90
2022/11/05 12:59:24;;;;;;;;;;;;;;;10.07;81.79;99714.03;10368783;22;19908;-88
2022/11/05 13:03:44;;;;;;;;;;;;;;;10.10;80.18;99709.72;10361960;23;19919;-92
2022/11/05 13:07:55;;;;;;;;;;;;;;;10.32;81.21;99707.19;10345462;23;19926;-91
2022/11/05 13:11:58;;;;;;;;;;;;;;;10.39;80.88;99707.19;10375350;23;19931;-88
2022/11/05 13:16:03;;;;;;;;;;;;;;;10.27;77.61;99707.19;10346628;23;19907;-90
2022/11/05 13:20:04;;;;;;;;;;;;;;;10.12;76.98;99701.94;10376852;23;20254;-93
2022/11/05 13:24:25;;;;;;;;;;;;;;;10.03;77.58;99707.94;10324117;23;19923;-92
2022/11/05 13:28:45;;;;;;;;;;;;;;;9.98;79.13;99709.66;10330434;23;19927;-91
2022/11/05 13:32:53;;;;;;;;;;;;;;;9.99;80.25;99701.88;10351585;23;19923;-90
2022/11/05 13:41:39;;;;;;;;;;;;;;;10.13;80.27;99699.34;10352409;23;19931;-91
2022/11/05 13:46:10;;;;;;;;;;;;;;;10.14;81.26;99695.88;10367764;23;19977;-89
2022/11/05 13:50:23;;;;;;;;;;;;;;;10.06;80.65;99696.72;10330931;23;19919;-90
2022/11/05 13:54:37;;;;;;;;;;;;;;;9.96;80.97;99691.50;10326820;23;19923;-93
2022/11/05 13:59:02;;;;;;;;;;;;;;;9.87;79.92;99698.38;10350909;23;19923;-89
2022/11/05 14:03:05;;;;;;;;;;;;;;;9.72;79.44;99698.34;10332566;23;19920;-93
2022/11/05 14:07:14;;;;;;;;;;;;;;;9.60;80.14;99696.56;10355347;22;19920;-88
2022/11/05 14:11:30;;;;;;;;;;;;;;;9.57;80.73;99694.81;10335051;22;19924;-90
2022/11/05 14:15:32;;;;;;;;;;;;;;;9.58;81.31;99682.72;10334130;22;19918;-92
2022/11/05 14:19:35;;;;;;;;;;;;;;;9.60;81.46;99679.28;10335804;22;19909;-92
2022/11/05 14:23:38;;;;;;;;;;;;;;;9.61;81.93;99675.81;10335983;22;19907;-92
2022/11/05 14:27:42;;;;;;;;;;;;;;;9.61;81.10;99670.63;10333187;22;19908;-91
2022/11/05 14:31:49;;;;;;;;;;;;;;;9.64;82.76;99662.00;10333110;22;19904;-90
2022/11/05 14:36:20;;;;;;;;;;;;;;;9.64;82.24;99651.63;10352759;23;19930;-90
2022/11/05 14:40:35;;;;;;;;;;;;;;;9.65;82.96;99651.63;10296825;23;19931;-81
2022/11/05 14:44:54;;;;;;;;;;;;;;;9.64;82.85;99652.50;10336196;23;19923;-84
2022/11/05 14:49:00;;;;;;;;;;;;;;;9.63;82.50;99650.75;10348606;22;19910;-90
2022/11/05 14:53:28;;;;;;;;;;;;;;;9.66;84.15;99653.38;10328251;22;19911;-90
2022/11/05 14:57:42;;;;;;;;;;;;;;;9.66;83.49;99652.50;10360958;22;19923;-91
2022/11/05 15:01:43;;;;;;;;;;;;;;;9.71;84.36;99652.53;10353542;23;19975;-89
2022/11/05 15:05:45;;;;;;;;;;;;;;;9.69;85.96;99662.88;10379572;22;19907;-92
2022/11/05 15:09:53;;;;;;;;;;;;;;;9.72;86.15;99672.41;10358195;22;19931;-92
2022/11/05 15:13:54;;;;;;;;;;;;;;;9.69;86.04;99666.38;10331522;22;19952;-93
2022/11/05 15:17:57;;;;;;;;;;;;;;;9.66;86.60;99668.91;10356271;22;19914;-93
2022/11/05 15:22:02;;;;;;;;;;;;;;;9.62;87.08;99671.50;10360409;23;19930;-93
2022/11/05 15:26:11;;;;;;;;;;;;;;;9.54;86.70;99665.44;10334085;22;19918;-92
2022/11/05 15:30:14;;;;;;;;;;;;;;;9.50;86.36;99669.72;10333607;22;19904;-92
2022/11/05 15:34:15;;;;;;;;;;;;;;;9.45;86.82;99666.25;10335311;22;19919;-93
2022/11/05 15:38:25;;;;;;;;;;;;;;;9.37;87.38;99676.59;10361056;22;19903;-91
2022/11/05 15:42:27;;;;;;;;;;;;;;;9.30;86.32;99673.94;10336441;22;19948;-89
2022/11/05 15:46:28;;;;;;;;;;;;;;;9.26;85.98;99669.59;10335262;22;19924;-93
2022/11/05 15:50:30;;;;;;;;;;;;;;;9.16;86.54;99667.84;10335967;22;19912;-89
2022/11/05 15:54:32;;;;;;;;;;;;;;;9.09;87.56;99666.91;10387739;22;19908;-87
2022/11/05 15:58:37;;;;;;;;;;;;;;;9.00;88.07;99664.28;10336741;22;19903;-86
2022/11/05 16:02:39;;;;;;;;;;;;;;;8.93;89.09;99671.13;10387462;22;19921;-89
2022/11/05 16:06:43;;;;;;;;;;;;;;;8.87;89.70;99670.25;10336708;22;19910;-84
2022/11/05 16:10:47;;;;;;;;;;;;;;;8.82;89.94;99670.22;10336614;22;20033;-87
2022/11/05 16:15:02;;;;;;;;;;;;;;;8.75;89.63;99668.41;10336557;22;19947;-85
2022/11/05 16:19:32;;;;;;;;;;;;;;;8.73;90.44;99665.81;10336493;22;19947;-86
2022/11/05 16:23:44;;;;;;;;;;;;;;;8.61;90.40;99663.13;10363063;22;19904;-85
2022/11/05 16:27:46;;;;;;;;;;;;;;;8.61;91.32;99672.63;10336014;22;19943;-85
2022/11/05 16:32:04;;;;;;;;;;;;;;;8.55;91.94;99672.56;10362011;22;19938;-85
2022/11/05 16:36:06;;;;;;;;;;;;;;;8.48;92.34;99676.84;10336166;22;19912;-84
2022/11/05 16:40:28;;;;;;;;;;;;;;;8.43;92.42;99679.38;10386909;22;19909;-84
2022/11/05 16:44:30;;;;;;;;;;;;;;;8.35;92.70;99672.41;10386566;22;19904;-85
2022/11/05 16:48:34;;;;;;;;;;;;;;;8.27;92.49;99686.97;10360201;22;19904;-89
2022/11/05 16:52:35;;;;;;;;;;;;;;;8.08;92.66;99681.63;10330120;22;20003;-81
2022/11/05 16:57:00;;;;;;;;;;;;;;;7.99;93.30;99686.69;10324775;23;19920;-81
2022/11/05 17:01:23;;;;;;;;;;;;;;;7.88;93.48;99683.97;10304713;23;19926;-83
2022/11/05 17:05:51;;;;;;;;;;;;;;;7.74;93.31;99682.97;10334414;23;20315;-83
2022/11/05 17:10:06;;;;;;;;;;;;;;;7.71;93.79;99689.78;10329774;23;19920;-81
2022/11/05 17:14:11;;;;;;;;;;;;;;;7.64;94.10;99694.03;10283325;22;19927;-81
2022/11/05 17:18:16;;;;;;;;;;;;;;;7.61;94.69;99683.66;10276157;23;19998;-80
2022/11/05 17:22:19;;;;;;;;;;;;;;;7.61;94.34;99693.13;10280463;23;19927;-80
2022/11/05 17:26:21;;;;;;;;;;;;;;;7.56;94.87;99701.69;10341802;23;20006;-81
2022/11/05 17:30:23;;;;;;;;;;;;;;;7.51;95.39;99695.59;10316714;23;19995;-81
2022/11/05 17:34:24;;;;;;;;;;;;;;;7.56;95.72;99708.59;10314235;23;19972;-80
2022/11/05 17:38:26;;;;;;;;;;;;;;;7.56;96.01;99711.19;10305665;23;19982;-80
2022/11/05 17:42:27;;;;;;;;;;;;;;;7.54;96.28;99708.56;10303315;23;19923;-79
2022/11/05 17:46:28;;;;;;;;;;;;;;;7.52;96.12;99709.38;10300885;23;19968;-79
2022/11/05 17:50:30;;;;;;;;;;;;;;;7.48;96.39;99711.06;10306031;23;20004;-79
2022/11/05 17:54:31;;;;;;;;;;;;;;;7.50;96.32;99706.78;10305160;23;19953;-79
2022/11/05 17:58:32;;;;;;;;;;;;;;;7.51;96.62;99713.69;10304415;23;19924;-79
2022/11/05 18:02:34;;;;;;;;;;;;;;;7.54;96.42;99711.16;10300920;23;20027;-79
2022/11/05 18:06:36;;;;;;;;;;;;;;;7.58;96.56;99706.88;10307805;23;19923;-78
2022/11/05 18:10:39;;;;;;;;;;;;;;;7.60;96.11;99712.94;10282398;23;20375;-79
2022/11/05 18:14:40;;;;;;;;;;;;;;;7.66;96.63;99706.97;10282114;22;19923;-78
2022/11/05 18:18:42;;;;;;;;;;;;;;;7.63;96.08;99712.97;10324669;23;19974;-79
2022/11/05 18:22:44;;;;;;;;;;;;;;;7.61;95.75;99714.69;10333628;23;19923;-79
2022/11/05 18:26:45;;;;;;;;;;;;;;;7.58;95.52;99714.63;10305773;23;19962;-78
2022/11/05 18:30:46;;;;;;;;;;;;;;;7.50;95.09;99714.53;10281865;23;19924;-78
2022/11/05 18:34:48;;;;;;;;;;;;;;;7.45;95.10;99710.16;10311221;23;20210;-81
2022/11/05 18:38:49;;;;;;;;;;;;;;;7.36;94.75;99712.59;10311770;23;20267;-81
2022/11/05 18:42:51;;;;;;;;;;;;;;;7.25;94.73;99704.72;10285444;23;19923;-81
2022/11/05 18:46:52;;;;;;;;;;;;;;;7.19;95.44;99709.81;10280563;23;19957;-81
2022/11/05 18:50:59;;;;;;;;;;;;;;;7.12;95.69;99710.56;10337446;23;19923;-81
2022/11/05 18:55:02;;;;;;;;;;;;;;;7.14;96.49;99706.28;10289207;23;19968;-81
2022/11/05 18:59:03;;;;;;;;;;;;;;;7.18;97.29;99708.94;10307665;23;19967;-81
2022/11/05 19:03:25;;;;;;;;;;;;;;;7.24;97.46;99708.16;10301792;23;19935;-81
2022/11/05 19:07:26;;;;;;;;;;;;;;;7.20;97.16;99709.84;10305293;23;20398;-81
2022/11/05 19:11:28;;;;;;;;;;;;;;;7.11;97.08;99709.69;10278129;23;19927;-81
2022/11/05 19:15:29;;;;;;;;;;;;;;;7.09;96.96;99710.50;10322637;22;19930;-81
2022/11/05 19:19:30;;;;;;;;;;;;;;;7.06;97.06;99713.06;10307783;23;19935;-81
2022/11/05 19:23:32;;;;;;;;;;;;;;;7.04;97.20;99709.59;10302993;23;19977;-78
2022/11/05 19:27:34;;;;;;;;;;;;;;;7.04;97.24;99701.84;10301743;23;20002;-79
2022/11/05 19:31:36;;;;;;;;;;;;;;;7.05;97.43;99699.28;10294884;23;19931;-79
2022/11/05 19:35:40;;;;;;;;;;;;;;;7.07;97.37;99696.72;10300686;23;20345;-79
2022/11/05 19:39:42;;;;;;;;;;;;;;;7.09;97.48;99695.03;10279406;23;19950;-78
2022/11/05 19:43:44;;;;;;;;;;;;;;;7.14;97.47;99701.09;10305290;23;20836;-78
2022/11/05 19:47:45;;;;;;;;;;;;;;;7.16;97.56;99700.28;10325610;23;19977;-78
2022/11/05 19:51:46;;;;;;;;;;;;;;;7.17;97.19;99704.59;10304748;23;19931;-78
2022/11/05 19:55:48;;;;;;;;;;;;;;;7.22;97.15;99709.84;10305257;23;20002;-78
2022/11/05 19:59:49;;;;;;;;;;;;;;;7.25;97.18;99702.13;10305350;23;19931;-78
2022/11/05 20:03:52;;;;;;;;;;;;;;;7.28;96.54;99702.19;10324427;23;19923;-78
2022/11/05 20:07:54;;;;;;;;;;;;;;;7.29;96.38;99701.31;10306283;23;19930;-79
2022/11/05 20:11:56;;;;;;;;;;;;;;;7.27;96.60;99695.28;10306861;23;19923;-78
2022/11/05 20:15:58;;;;;;;;;;;;;;;7.27;96.23;99693.56;10301770;22;19934;-79
2022/11/05 20:19:59;;;;;;;;;;;;;;;7.24;96.36;99692.66;10306751;23;19928;-79
2022/11/05 20:24:01;;;;;;;;;;;;;;;7.20;95.83;99688.31;10331067;23;20632;-79
2022/11/05 20:28:02;;;;;;;;;;;;;;;7.18;95.62;99689.97;10330538;22;19978;-79
2022/11/05 20:32:04;;;;;;;;;;;;;;;7.15;95.43;99703.72;10298731;22;19986;-79
2022/11/05 20:36:07;;;;;;;;;;;;;;;7.12;95.21;99710.56;10304996;23;19931;-79
2022/11/05 20:40:09;;;;;;;;;;;;;;;7.08;95.42;99704.47;10305385;23;19961;-79
2022/11/05 20:44:11;;;;;;;;;;;;;;;7.02;95.11;99712.16;10329636;23;19920;-78
2022/11/05 20:48:12;;;;;;;;;;;;;;;6.91;94.86;99722.28;10296554;23;19927;-79
2022/11/05 20:52:16;;;;;;;;;;;;;;;6.85;94.95;99722.22;10328134;23;19924;-79
2022/11/05 20:56:18;;;;;;;;;;;;;;;6.73;94.59;99727.16;10328417;23;19927;-79
2022/11/05 21:00:19;;;;;;;;;;;;;;;6.65;94.81;99732.22;10296646;23;20030;-79
2022/11/05 21:04:21;;;;;;;;;;;;;;;6.60;94.92;99733.81;10327571;23;20014;-79
2022/11/05 21:08:22;;;;;;;;;;;;;;;6.49;95.16;99727.63;10302966;23;19924;-79
2022/11/05 21:12:24;;;;;;;;;;;;;;;6.49;95.72;99734.50;10329750;22;20261;-78
2022/11/05 21:16:25;;;;;;;;;;;;;;;6.51;96.13;99733.69;10313492;23;19935;-79
2022/11/05 21:20:27;;;;;;;;;;;;;;;6.55;96.43;99740.63;10324957;23;19924;-78
2022/11/05 21:24:29;;;;;;;;;;;;;;;6.60;96.81;99730.38;10277392;23;19923;-78
2022/11/05 21:28:30;;;;;;;;;;;;;;;6.65;96.84;99733.94;10327947;23;19938;-77
2022/11/05 21:32:32;;;;;;;;;;;;;;;6.69;96.88;99738.28;10269491;23;19924;-76
2022/11/05 21:36:33;;;;;;;;;;;;;;;6.72;97.17;99730.59;10274598;23;20603;-77
2022/11/05 21:40:34;;;;;;;;;;;;;;;6.72;97.07;99738.34;10304163;23;19924;-77
2022/11/05 21:44:35;;;;;;;;;;;;;;;6.69;96.47;99737.41;10328592;23;20258;-77
2022/11/05 21:48:38;;;;;;;;;;;;;;;6.68;96.37;99733.09;10293360;23;19958;-76
2022/11/05 22:01:19;;;;;;;;;;;;;;;6.58;96.56;99722.63;10295022;23;19923;-77
2022/11/05 22:05:21;;;;;;;;;;;;;;;6.55;96.36;99726.88;10278146;23;19931;-76
2022/11/05 22:09:22;;;;;;;;;;;;;;;6.44;95.67;99721.50;10278721;23;19924;-76
2022/11/05 22:13:24;;;;;;;;;;;;;;;6.41;95.97;99712.84;10329052;22;19957;-76
2022/11/05 22:17:25;;;;;;;;;;;;;;;6.34;96.07;99715.34;10317735;23;20354;-76
2022/11/05 22:21:27;;;;;;;;;;;;;;;6.31;96.02;99709.25;10304237;23;20010;-76
2022/11/05 22:25:28;;;;;;;;;;;;;;;6.27;96.14;99705.72;10304674;23;19927;-76
2022/11/05 22:29:29;;;;;;;;;;;;;;;6.23;96.32;99705.66;10306088;23;20428;-76
2022/11/05 22:33:31;;;;;;;;;;;;;;;6.17;95.95;99708.13;10302107;23;19931;-77
2022/11/05 22:37:32;;;;;;;;;;;;;;;6.13;96.46;99708.94;10303920;23;19955;-77
2022/11/05 22:41:33;;;;;;;;;;;;;;;6.09;96.23;99714.84;10330096;23;19924;-77
2022/11/05 22:45:35;;;;;;;;;;;;;;;5.94;96.04;99725.75;10271603;23;19931;-77
2022/11/05 22:49:36;;;;;;;;;;;;;;;5.82;95.78;99720.31;10305611;23;19923;-77
2022/11/05 22:53:38;;;;;;;;;;;;;;;5.78;96.19;99719.41;10331760;23;19924;-76
2022/11/05 22:57:40;;;;;;;;;;;;;;;5.73;96.60;99719.28;10331040;23;19928;-77
2022/11/05 23:01:42;;;;;;;;;;;;;;;5.65;96.62;99714.81;10296549;23;19923;-76
2022/11/05 23:05:44;;;;;;;;;;;;;;;5.54;96.70;99717.16;10302020;23;19923;-76
2022/11/05 23:14:06;;;;;;;;;;;;;;;5.32;96.62;99702.09;10327637;22;19935;-76